Wilkinson, Mississippi
Current Conditions -  °F | °C
As of 5:15 PM on Saturday 25 Oct 2014 (Local Time) from KHEZ Reporting Station
Clear Clear  
Wind Chill: 79°   Ceiling: Unl
Heat Index: 79°   Visibility: 10mi
Dew Point: 55°   Wind: 3mph
Humidity: 44%   Direction: 260°W
Pressure: 30.08"   Gusts: NA
Location:  31.1784°N, 91.3525°W
Report Text: KHEZ 252215Z AUTO 26003KT 10SM CLR 26/13 A3008 RMK AO1
Loading
Personal Weather Stations






























Interactive Weather Map
Tropical Storm Tracking
New forecast layout! Learn more

10-Day Weather Forecast

Advertisements
Track Severe Weather on mobile